Time,TemperatureF,DewpointF,PressureIn,WindDirection,WindDirectionDegrees,WindSpeedMPH,WindSpeedGustMPH,Humidity,HourlyPrecipIn,Conditions,Clouds,dailyrainin,SoftwareType,DateUTC
2013-01-21 00:03:00,17.0,14.0,-100.00,NNW,340,9.0,16.0,86,-99.99,,,-99.99,,2013-01-21 06:03:00,
2013-01-21 00:13:00,18.0,14.0,-100.00,NNW,340,11.0,14.0,87,-99.99,,,-99.99,,2013-01-21 06:13:00,
2013-01-21 00:23:00,17.0,14.0,-100.00,North,10,11.0,16.0,88,-99.99,,,-99.99,,2013-01-21 06:23:00,
2013-01-21 00:33:00,17.0,14.0,-100.00,North,10,11.0,16.0,88,-99.99,,,-99.99,,2013-01-21 06:33:00,
2013-01-21 00:43:00,17.0,14.0,-100.00,NNW,340,8.0,16.0,88,-99.99,,,-99.99,,2013-01-21 06:43:00,
2013-01-21 00:53:00,17.0,14.0,-100.00,North,0,11.0,14.0,89,-99.99,,,-99.99,,2013-01-21 06:53:00,
2013-01-21 01:03:00,17.0,14.0,-100.00,North,0,11.0,14.0,89,-99.99,,,-99.99,,2013-01-21 07:03:00,
2013-01-21 01:13:00,17.0,14.0,-100.00,NNW,340,10.0,17.0,90,-99.99,,,-99.99,,2013-01-21 07:13:00,
2013-01-21 01:22:00,16.0,13.0,-100.00,North,0,16.0,23.0,87,-99.99,,,-99.99,,2013-01-21 07:22:00,
2013-01-21 01:33:00,16.0,13.0,-100.00,NNW,340,7.0,14.0,87,-99.99,,,-99.99,,2013-01-21 07:33:00,
2013-01-21 01:42:00,16.0,13.0,-100.00,NNW,340,7.0,14.0,87,-99.99,,,-99.99,,2013-01-21 07:42:00,
2013-01-21 01:53:00,16.0,13.0,-100.00,North,0,8.0,14.0,88,-99.99,,,-99.99,,2013-01-21 07:53:00,
2013-01-21 02:03:00,16.0,13.0,-100.00,North,0,8.0,14.0,88,-99.99,,,-99.99,,2013-01-21 08:03:00,
2013-01-21 02:13:00,16.0,14.0,-100.00,NNW,330,10.0,12.0,90,-99.99,,,-99.99,,2013-01-21 08:13:00,
2013-01-21 02:23:00,17.0,15.0,-100.00,NW,320,18.0,26.0,91,-99.99,,,-99.99,,2013-01-21 08:23:00,
2013-01-21 02:32:00,17.0,15.0,-100.00,NW,320,18.0,26.0,91,-99.99,,,-99.99,,2013-01-21 08:32:00,
2013-01-21 02:42:00,16.0,14.0,-100.00,NW,320,20.0,26.0,91,-99.99,,,-99.99,,2013-01-21 08:42:00,
2013-01-21 02:53:00,16.0,13.0,-100.00,NNW,340,12.0,21.0,90,-99.99,,,-99.99,,2013-01-21 08:53:00,
2013-01-21 03:03:00,16.0,13.0,-100.00,NNW,340,12.0,21.0,90,-99.99,,,-99.99,,2013-01-21 09:03:00,
2013-01-21 03:12:00,15.0,13.0,-100.00,NNW,330,16.0,24.0,90,-99.99,,,-99.99,,2013-01-21 09:12:00,
2013-01-21 03:23:00,15.0,12.0,-100.00,NNW,345,11.0,21.0,89,-99.99,,,-99.99,,2013-01-21 09:23:00,
2013-01-21 03:33:00,15.0,12.0,-100.00,NNW,345,11.0,21.0,89,-99.99,,,-99.99,,2013-01-21 09:33:00,
2013-01-21 03:42:00,15.0,12.0,-100.00,NNW,340,15.0,23.0,89,-99.99,,,-99.99,,2013-01-21 09:42:00,
2013-01-21 03:53:00,14.0,12.0,-100.00,NNW,340,17.0,24.0,89,-99.99,,,-99.99,,2013-01-21 09:53:00,
2013-01-21 04:02:00,14.0,12.0,-100.00,NNW,340,17.0,24.0,89,-99.99,,,-99.99,,2013-01-21 10:02:00,
2013-01-21 04:12:00,14.0,12.0,-100.00,NW,320,16.0,25.0,89,-99.99,,,-99.99,,2013-01-21 10:12:00,
2013-01-21 04:22:00,14.0,12.0,-100.00,NW,325,18.0,26.0,89,-99.99,,,-99.99,,2013-01-21 10:22:00,
2013-01-21 04:32:00,14.0,12.0,-100.00,NW,325,18.0,26.0,89,-99.99,,,-99.99,,2013-01-21 10:32:00,
2013-01-21 04:43:00,14.0,11.0,-100.00,NNW,330,11.0,21.0,88,-99.99,,,-99.99,,2013-01-21 10:43:00,
2013-01-21 04:53:00,14.0,12.0,-100.00,NNW,330,15.0,23.0,90,-99.99,,,-99.99,,2013-01-21 10:53:00,
2013-01-21 05:02:00,14.0,12.0,-100.00,NNW,330,15.0,23.0,90,-99.99,,,-99.99,,2013-01-21 11:02:00,
2013-01-21 05:13:00,14.0,12.0,-100.00,NNW,335,16.0,19.0,91,-99.99,,,-99.99,,2013-01-21 11:13:00,
2013-01-21 05:23:00,13.0,11.0,-100.00,NW,320,12.0,22.0,91,-99.99,,,-99.99,,2013-01-21 11:23:00,
2013-01-21 05:33:00,13.0,11.0,-100.00,NNW,335,13.0,23.0,91,-99.99,,,-99.99,,2013-01-21 11:33:00,
2013-01-21 05:43:00,13.0,11.0,-100.00,NNW,335,13.0,23.0,91,-99.99,,,-99.99,,2013-01-21 11:43:00,
2013-01-21 05:53:00,13.0,10.0,-100.00,NNW,330,19.0,27.0,89,-99.99,,,-99.99,,2013-01-21 11:53:00,
2013-01-21 06:02:00,13.0,10.0,-100.00,NNW,330,19.0,27.0,89,-99.99,,,-99.99,,2013-01-21 12:02:00,
2013-01-21 06:12:00,12.0,9.0,-100.00,North,0,16.0,23.0,88,-99.99,,,-99.99,,2013-01-21 12:12:00,
2013-01-21 06:22:00,12.0,9.0,-100.00,North,355,14.0,23.0,87,-99.99,,,-99.99,,2013-01-21 12:22:00,
2013-01-21 06:33:00,12.0,9.0,-100.00,North,355,14.0,23.0,87,-99.99,,,-99.99,,2013-01-21 12:33:00,
2013-01-21 06:42:00,12.0,9.0,-100.00,North,350,14.0,23.0,88,-99.99,,,-99.99,,2013-01-21 12:42:00,
2013-01-21 06:53:00,12.0,9.0,-100.00,NNW,330,23.0,31.0,89,-99.99,,,-99.99,,2013-01-21 12:53:00,
2013-01-21 07:02:00,12.0,9.0,-100.00,NNW,330,23.0,31.0,89,-99.99,,,-99.99,,2013-01-21 13:02:00,
2013-01-21 07:13:00,11.0,8.0,-100.00,NNW,335,21.0,30.0,88,-99.99,,,-99.99,,2013-01-21 13:13:00,
2013-01-21 07:23:00,11.0,7.0,-100.00,North,0,14.0,26.0,87,-99.99,,,-99.99,,2013-01-21 13:23:00,
2013-01-21 07:33:00,10.0,7.0,-100.00,NNW,335,15.0,26.0,86,-99.99,,,-99.99,,2013-01-21 13:33:00,
2013-01-21 07:43:00,10.0,7.0,-100.00,NNW,335,15.0,26.0,86,-99.99,,,-99.99,,2013-01-21 13:43:00,
2013-01-21 07:54:00,10.0,6.0,-100.00,North,5,13.0,24.0,83,-99.99,,,-99.99,,2013-01-21 13:54:00,
2013-01-21 08:03:00,10.0,6.0,-100.00,North,5,13.0,24.0,83,-99.99,,,-99.99,,2013-01-21 14:03:00,
2013-01-21 08:12:00,9.0,5.0,-100.00,NNE,20,16.0,25.0,83,-99.99,,,-99.99,,2013-01-21 14:12:00,
2013-01-21 08:23:00,9.0,5.0,-100.00,North,5,15.0,26.0,84,-99.99,,,-99.99,,2013-01-21 14:23:00,
2013-01-21 08:32:00,9.0,5.0,-100.00,North,5,15.0,26.0,84,-99.99,,,-99.99,,2013-01-21 14:32:00,
2013-01-21 08:43:00,9.0,6.0,-100.00,North,5,13.0,24.0,86,-99.99,,,-99.99,,2013-01-21 14:43:00,
2013-01-21 08:53:00,9.0,5.0,-100.00,North,0,15.0,24.0,84,-99.99,,,-99.99,,2013-01-21 14:53:00,
2013-01-21 09:03:00,9.0,5.0,-100.00,North,0,15.0,24.0,84,-99.99,,,-99.99,,2013-01-21 15:03:00,
2013-01-21 09:13:00,9.0,5.0,-100.00,NNE,15,14.0,27.0,82,-99.99,,,-99.99,,2013-01-21 15:13:00,
2013-01-21 09:23:00,9.0,6.0,-100.00,NNW,340,9.0,24.0,85,-99.99,,,-99.99,,2013-01-21 15:23:00,
2013-01-21 09:33:00,9.0,6.0,-100.00,NNW,340,9.0,24.0,85,-99.99,,,-99.99,,2013-01-21 15:33:00,
2013-01-21 09:43:00,9.0,4.0,-100.00,North,350,18.0,29.0,79,-99.99,,,-99.99,,2013-01-21 15:43:00,
2013-01-21 09:53:00,10.0,4.0,-100.00,NNW,335,16.0,29.0,76,-99.99,,,-99.99,,2013-01-21 15:53:00,
2013-01-21 10:03:00,10.0,4.0,-100.00,NNW,335,16.0,29.0,76,-99.99,,,-99.99,,2013-01-21 16:03:00,
2013-01-21 10:12:00,10.0,4.0,-100.00,North,0,14.0,29.0,76,-99.99,,,-99.99,,2013-01-21 16:12:00,
2013-01-21 10:23:00,10.0,3.0,-100.00,North,0,14.0,29.0,75,-99.99,,,-99.99,,2013-01-21 16:23:00,
2013-01-21 10:33:00,10.0,3.0,-100.00,North,0,14.0,29.0,75,-99.99,,,-99.99,,2013-01-21 16:33:00,
2013-01-21 10:43:00,9.0,2.0,-100.00,North,350,16.0,25.0,71,-99.99,,,-99.99,,2013-01-21 16:43:00,
2013-01-21 10:53:00,9.0,2.0,-100.00,North,350,11.0,23.0,72,-99.99,,,-99.99,,2013-01-21 16:53:00,
2013-01-21 11:02:00,9.0,2.0,-100.00,North,350,11.0,23.0,72,-99.99,,,-99.99,,2013-01-21 17:02:00,
2013-01-21 11:12:00,9.0,2.0,-100.00,North,0,19.0,29.0,73,-99.99,,,-99.99,,2013-01-21 17:12:00,
2013-01-21 11:23:00,10.0,2.0,-100.00,North,5,16.0,27.0,71,-99.99,,,-99.99,,2013-01-21 17:23:00,
2013-01-21 11:33:00,10.0,2.0,-100.00,North,5,16.0,27.0,71,-99.99,,,-99.99,,2013-01-21 17:33:00,
2013-01-21 11:43:00,10.0,1.0,-100.00,North,0,12.0,28.0,68,-99.99,,,-99.99,,2013-01-21 17:43:00,
2013-01-21 11:53:00,10.0,2.0,-100.00,North,0,17.0,29.0,68,-99.99,,,-99.99,,2013-01-21 17:53:00,
2013-01-21 12:03:00,10.0,2.0,-100.00,North,0,17.0,29.0,68,-99.99,,,-99.99,,2013-01-21 18:03:00,
2013-01-21 12:12:00,10.0,1.0,-100.00,NNW,340,17.0,29.0,67,-99.99,,,-99.99,,2013-01-21 18:12:00,
2013-01-21 12:22:00,9.0,0.0,-100.00,North,0,21.0,27.0,65,-99.99,,,-99.99,,2013-01-21 18:22:00,
2013-01-21 12:33:00,9.0,0.0,-100.00,North,0,21.0,27.0,65,-99.99,,,-99.99,,2013-01-21 18:33:00,
2013-01-21 12:42:00,10.0,0.0,-100.00,NNE,20,14.0,25.0,63,-99.99,,,-99.99,,2013-01-21 18:42:00,
2013-01-21 12:53:00,11.0,0.0,-100.00,North,0,16.0,25.0,62,-99.99,,,-99.99,,2013-01-21 18:53:00,
2013-01-21 13:03:00,11.0,0.0,-100.00,North,0,16.0,25.0,62,-99.99,,,-99.99,,2013-01-21 19:03:00,
2013-01-21 13:12:00,11.0,1.0,-100.00,North,0,18.0,25.0,62,-99.99,,,-99.99,,2013-01-21 19:12:00,
2013-01-21 13:22:00,11.0,1.0,-100.00,North,0,12.0,26.0,62,-99.99,,,-99.99,,2013-01-21 19:22:00,
2013-01-21 13:33:00,11.0,1.0,-100.00,North,0,12.0,26.0,62,-99.99,,,-99.99,,2013-01-21 19:33:00,
2013-01-21 13:43:00,12.0,1.0,-100.00,North,350,17.0,26.0,61,-99.99,,,-99.99,,2013-01-21 19:43:00,
2013-01-21 13:53:00,12.0,1.0,-100.00,North,355,16.0,23.0,60,-99.99,,,-99.99,,2013-01-21 19:53:00,
2013-01-21 14:03:00,12.0,1.0,-100.00,North,355,16.0,23.0,60,-99.99,,,-99.99,,2013-01-21 20:03:00,
2013-01-21 14:12:00,13.0,1.0,-100.00,NE,40,8.0,21.0,58,-99.99,,,-99.99,,2013-01-21 20:12:00,
2013-01-21 14:23:00,12.0,0.0,-100.00,North,0,19.0,26.0,56,-99.99,,,-99.99,,2013-01-21 20:23:00,
2013-01-21 14:33:00,12.0,0.0,-100.00,North,0,19.0,26.0,56,-99.99,,,-99.99,,2013-01-21 20:33:00,
2013-01-21 14:43:00,12.0,0.0,-100.00,North,0,19.0,26.0,56,-99.99,,,-99.99,,2013-01-21 20:43:00,
2013-01-21 14:53:00,14.0,1.0,-100.00,North,0,14.0,23.0,55,-99.99,,,-99.99,,2013-01-21 20:53:00,
2013-01-21 15:04:00,14.0,1.0,-100.00,North,0,14.0,23.0,55,-99.99,,,-99.99,,2013-01-21 21:04:00,
2013-01-21 15:12:00,14.0,1.0,-100.00,NNW,345,19.0,30.0,55,-99.99,,,-99.99,,2013-01-21 21:12:00,
2013-01-21 15:23:00,14.0,1.0,-100.00,NNW,330,14.0,24.0,54,-99.99,,,-99.99,,2013-01-21 21:23:00,
2013-01-21 15:33:00,14.0,1.0,-100.00,NNW,330,14.0,24.0,54,-99.99,,,-99.99,,2013-01-21 21:33:00,
2013-01-21 15:43:00,14.0,1.0,-100.00,NW,315,16.0,29.0,56,-99.99,,,-99.99,,2013-01-21 21:43:00,
2013-01-21 15:54:00,14.0,1.0,-100.00,NW,320,14.0,29.0,56,-99.99,,,-99.99,,2013-01-21 21:54:00,
2013-01-21 16:03:00,14.0,1.0,-100.00,NW,320,14.0,29.0,56,-99.99,,,-99.99,,2013-01-21 22:03:00,
2013-01-21 16:12:00,13.0,1.0,-100.00,NNW,330,17.0,26.0,56,-99.99,,,-99.99,,2013-01-21 22:12:00,
2013-01-21 16:23:00,13.0,1.0,-100.00,NW,320,21.0,27.0,59,-99.99,,,-99.99,,2013-01-21 22:23:00,
2013-01-21 16:33:00,13.0,2.0,-100.00,NNW,340,13.0,24.0,60,-99.99,,,-99.99,,2013-01-21 22:33:00,
2013-01-21 16:43:00,13.0,2.0,-100.00,NNW,340,13.0,24.0,60,-99.99,,,-99.99,,2013-01-21 22:43:00,
2013-01-21 16:53:00,13.0,2.0,-100.00,NW,325,15.0,24.0,61,-99.99,,,-99.99,,2013-01-21 22:53:00,
2013-01-21 17:03:00,13.0,2.0,-100.00,NW,325,15.0,24.0,61,-99.99,,,-99.99,,2013-01-21 23:03:00,
2013-01-21 17:12:00,13.0,2.0,-100.00,NW,320,16.0,21.0,62,-99.99,,,-99.99,,2013-01-21 23:12:00,
2013-01-21 17:23:00,12.0,2.0,-100.00,NW,320,16.0,23.0,64,-99.99,,,-99.99,,2013-01-21 23:23:00,
2013-01-21 17:33:00,11.0,2.0,-100.00,NNW,340,14.0,18.0,64,-99.99,,,-99.99,,2013-01-21 23:33:00,
2013-01-21 17:42:00,11.0,2.0,-100.00,NNW,340,14.0,18.0,64,-99.99,,,-99.99,,2013-01-21 23:42:00,
2013-01-21 17:53:00,11.0,2.0,-100.00,NNW,340,14.0,21.0,65,-99.99,,,-99.99,,2013-01-21 23:53:00,
2013-01-21 18:02:00,11.0,2.0,-100.00,NNW,340,14.0,21.0,65,-99.99,,,-99.99,,2013-01-22 00:02:00,
2013-01-21 18:12:00,11.0,2.0,-100.00,North,355,11.0,19.0,67,-99.99,,,-99.99,,2013-01-22 00:12:00,
2013-01-21 18:22:00,10.0,1.0,-100.00,NNW,345,8.0,21.0,66,-99.99,,,-99.99,,2013-01-22 00:22:00,
2013-01-21 18:33:00,10.0,1.0,-100.00,NNW,335,13.0,19.0,67,-99.99,,,-99.99,,2013-01-22 00:33:00,
2013-01-21 18:43:00,10.0,1.0,-100.00,NNW,335,13.0,19.0,67,-99.99,,,-99.99,,2013-01-22 00:43:00,
2013-01-21 18:53:00,9.0,1.0,-100.00,NW,325,16.0,21.0,68,-99.99,,,-99.99,,2013-01-22 00:53:00,
2013-01-21 19:02:00,9.0,1.0,-100.00,NW,325,16.0,21.0,68,-99.99,,,-99.99,,2013-01-22 01:02:00,
2013-01-21 19:12:00,9.0,1.0,-100.00,North,355,10.0,18.0,69,-99.99,,,-99.99,,2013-01-22 01:12:00,
2013-01-21 19:23:00,9.0,2.0,-100.00,North,0,9.0,16.0,70,-99.99,,,-99.99,,2013-01-22 01:23:00,
2013-01-21 19:32:00,9.0,2.0,-100.00,North,0,9.0,16.0,70,-99.99,,,-99.99,,2013-01-22 01:32:00,
2013-01-21 19:42:00,9.0,2.0,-100.00,North,0,9.0,16.0,70,-99.99,,,-99.99,,2013-01-22 01:42:00,
2013-01-21 19:53:00,9.0,3.0,-100.00,NW,325,14.0,19.0,74,-99.99,,,-99.99,,2013-01-22 01:53:00,
2013-01-21 20:02:00,9.0,3.0,-100.00,NW,325,14.0,19.0,74,-99.99,,,-99.99,,2013-01-22 02:02:00,
2013-01-21 20:12:00,8.0,2.0,-100.00,NW,320,15.0,23.0,75,-99.99,,,-99.99,,2013-01-22 02:12:00,
2013-01-21 20:22:00,8.0,2.0,-100.00,NW,325,11.0,17.0,76,-99.99,,,-99.99,,2013-01-22 02:22:00,
2013-01-21 20:32:00,8.0,2.0,-100.00,NW,325,11.0,17.0,76,-99.99,,,-99.99,,2013-01-22 02:32:00,
2013-01-21 20:43:00,8.0,2.0,-100.00,NW,320,15.0,21.0,76,-99.99,,,-99.99,,2013-01-22 02:43:00,
2013-01-21 20:53:00,8.0,2.0,-100.00,NW,325,11.0,20.0,76,-99.99,,,-99.99,,2013-01-22 02:53:00,
2013-01-21 21:02:00,8.0,2.0,-100.00,NW,325,11.0,20.0,76,-99.99,,,-99.99,,2013-01-22 03:02:00,
2013-01-21 21:12:00,8.0,2.0,-100.00,NW,320,10.0,16.0,76,-99.99,,,-99.99,,2013-01-22 03:12:00,
2013-01-21 21:22:00,8.0,2.0,-100.00,North,0,8.0,15.0,77,-99.99,,,-99.99,,2013-01-22 03:22:00,
2013-01-21 21:32:00,8.0,2.0,-100.00,North,0,8.0,15.0,77,-99.99,,,-99.99,,2013-01-22 03:32:00,
2013-01-21 21:42:00,7.0,2.0,-100.00,NNW,330,14.0,17.0,77,-99.99,,,-99.99,,2013-01-22 03:42:00,
2013-01-21 21:53:00,8.0,2.0,-100.00,NNW,340,9.0,14.0,77,-99.99,,,-99.99,,2013-01-22 03:53:00,
2013-01-21 22:02:00,8.0,2.0,-100.00,NNW,340,9.0,14.0,77,-99.99,,,-99.99,,2013-01-22 04:02:00,
2013-01-21 22:12:00,8.0,2.0,-100.00,NNW,340,7.0,14.0,77,-99.99,,,-99.99,,2013-01-22 04:12:00,
2013-01-21 22:22:00,8.0,2.0,-100.00,NNW,335,10.0,16.0,78,-99.99,,,-99.99,,2013-01-22 04:22:00,
2013-01-21 22:32:00,8.0,2.0,-100.00,NNW,335,10.0,16.0,78,-99.99,,,-99.99,,2013-01-22 04:32:00,
2013-01-21 22:42:00,7.0,2.0,-100.00,NNW,335,8.0,15.0,78,-99.99,,,-99.99,,2013-01-22 04:42:00,
2013-01-21 22:52:00,7.0,2.0,-100.00,NNW,345,10.0,18.0,78,-99.99,,,-99.99,,2013-01-22 04:52:00,
2013-01-21 23:12:00,7.0,2.0,-100.00,NW,320,11.0,16.0,79,-99.99,,,-99.99,,2013-01-22 05:12:00,
2013-01-21 23:22:00,7.0,2.0,-100.00,NNW,335,13.0,17.0,79,-99.99,,,-99.99,,2013-01-22 05:22:00,
2013-01-21 23:32:00,7.0,2.0,-100.00,NNW,335,13.0,17.0,79,-99.99,,,-99.99,,2013-01-22 05:32:00,
2013-01-21 23:42:00,7.0,2.0,-100.00,NW,310,9.0,13.0,79,-99.99,,,-99.99,,2013-01-22 05:42:00,
2013-01-21 23:53:00,7.0,2.0,-100.00,NNW,330,9.0,14.0,79,-99.99,,,-99.99,,2013-01-22 05:53:00,